createdAt,value
2023-05-15T00:00:15.849Z,89.87
2023-05-15T00:02:46.160Z,81.40
2023-05-15T00:05:18.574Z,85.47
2023-05-15T00:07:49.825Z,88.37
2023-05-15T00:10:19.425Z,91.67
2023-05-15T00:12:50.017Z,100.57
2023-05-15T00:15:24.825Z,138.63
2023-05-15T00:17:56.616Z,98.83
2023-05-15T00:20:33.313Z,176.63
2023-05-15T00:23:05.473Z,112.53
2023-05-15T00:25:34.908Z,125.73
2023-05-15T00:28:09.609Z,130.33
2023-05-15T00:30:39.911Z,121.37
2023-05-15T00:33:11.074Z,128.40
2023-05-15T00:35:42.414Z,84.20
2023-05-15T00:38:14.427Z,85.63
2023-05-15T00:41:07.312Z,83.77
2023-05-15T00:44:06.832Z,124.60
2023-05-15T00:47:01.687Z,107.10
2023-05-15T00:49:59.756Z,103.63
2023-05-15T00:53:00.537Z,118.63
2023-05-15T00:55:54.302Z,83.07
2023-05-15T00:58:52.337Z,76.03
2023-05-15T01:01:49.351Z,79.50
2023-05-15T01:04:43.419Z,76.93
2023-05-15T01:07:42.954Z,87.07
2023-05-15T01:10:28.534Z,75.43
2023-05-15T01:13:15.331Z,77.03
2023-05-15T01:16:11.377Z,66.53
2023-05-15T01:18:49.218Z,68.17
2023-05-15T01:22:30.692Z,96.57
2023-05-15T01:25:54.851Z,94.70
2023-05-15T01:28:38.040Z,80.27
2023-05-15T01:31:22.048Z,92.93
2023-05-15T01:34:01.950Z,78.03
2023-05-15T01:36:40.164Z,79.87
2023-05-15T01:39:17.442Z,73.60
2023-05-15T01:42:14.926Z,89.10
2023-05-15T01:45:35.091Z,78.83
2023-05-15T01:48:12.607Z,108.77
2023-05-15T01:50:51.202Z,73.30
2023-05-15T01:53:30.282Z,90.00
2023-05-15T01:56:09.567Z,96.20
2023-05-15T01:58:40.169Z,107.10
2023-05-15T02:01:31.618Z,87.13
2023-05-15T02:04:04.991Z,82.17
2023-05-15T02:06:58.697Z,105.30
2023-05-15T02:10:04.101Z,84.00
2023-05-15T02:13:06.014Z,91.40
2023-05-15T02:15:40.605Z,93.43
2023-05-15T02:18:43.531Z,84.73
2023-05-15T02:21:26.158Z,79.90
2023-05-15T02:24:16.835Z,77.40
2023-05-15T02:27:31.555Z,87.20
2023-05-15T02:30:38.454Z,99.53
2023-05-15T02:33:42.023Z,88.50
2023-05-15T02:36:32.744Z,95.50
2023-05-15T02:39:18.730Z,107.87
2023-05-15T02:42:08.787Z,89.03
2023-05-15T02:44:46.839Z,82.63
2023-05-15T02:47:26.737Z,86.73
2023-05-15T02:50:12.160Z,84.50
2023-05-15T02:52:41.696Z,87.30
2023-05-15T02:55:15.913Z,85.93
2023-05-15T02:57:46.428Z,85.23
2023-05-15T03:00:18.735Z,177.63
2023-05-15T03:02:51.404Z,123.27
2023-05-15T03:05:26.902Z,126.73
2023-05-15T03:08:00.586Z,123.70
2023-05-15T03:10:38.611Z,106.30
2023-05-15T03:13:09.435Z,159.03
2023-05-15T03:15:41.247Z,90.30
2023-05-15T03:18:11.783Z,99.20
2023-05-15T03:20:44.186Z,105.30
2023-05-15T03:23:17.087Z,107.83
2023-05-15T03:25:49.846Z,127.20
2023-05-15T03:28:37.803Z,174.97
2023-05-15T03:31:15.522Z,119.60
2023-05-15T03:34:03.103Z,115.53
2023-05-15T03:37:04.993Z,102.63
2023-05-15T03:40:03.439Z,106.03
2023-05-15T03:42:54.461Z,91.47
2023-05-15T03:46:07.179Z,157.60
2023-05-15T03:48:59.627Z,104.87
2023-05-15T03:52:10.782Z,94.43
2023-05-15T03:55:09.867Z,186.53
2023-05-15T03:58:03.278Z,118.87
2023-05-15T04:04:06.896Z,213.60
2023-05-15T04:07:03.402Z,177.67
2023-05-15T04:13:22.356Z,145.97
2023-05-15T04:15:55.845Z,103.40
2023-05-15T04:18:28.146Z,116.77
2023-05-15T04:21:00.317Z,142.77
2023-05-15T04:23:34.907Z,99.33
2023-05-15T04:26:08.197Z,95.77
2023-05-15T04:28:40.269Z,85.27
2023-05-15T04:31:13.659Z,92.07
2023-05-15T04:33:43.256Z,79.40
2023-05-15T04:36:13.338Z,105.47
2023-05-15T04:38:43.192Z,109.77
2023-05-15T04:41:17.204Z,92.80
2023-05-15T04:43:46.980Z,83.47
2023-05-15T04:46:23.723Z,76.33
2023-05-15T04:48:56.755Z,55.77
2023-05-15T04:51:36.638Z,57.50
2023-05-15T04:54:08.218Z,54.53
2023-05-15T04:56:44.352Z,58.30
2023-05-15T04:59:16.328Z,50.37
2023-05-15T05:01:46.457Z,55.47
2023-05-15T05:04:21.776Z,52.53
2023-05-15T05:06:53.705Z,53.43
2023-05-15T05:09:45.470Z,54.37
2023-05-15T05:12:17.213Z,59.63
2023-05-15T05:14:47.012Z,62.87
2023-05-15T05:17:17.261Z,56.53
2023-05-15T05:19:48.030Z,54.67
2023-05-15T05:22:18.461Z,53.93
2023-05-15T05:24:59.992Z,50.87
2023-05-15T05:27:33.376Z,50.03
2023-05-15T05:30:03.542Z,47.60
2023-05-15T05:32:33.553Z,48.90
2023-05-15T05:35:04.759Z,49.87
2023-05-15T05:37:34.661Z,47.77
2023-05-15T05:40:18.047Z,47.70
2023-05-15T05:42:50.222Z,45.93
2023-05-15T05:45:22.049Z,42.80
2023-05-15T05:47:55.852Z,44.10
2023-05-15T05:50:27.177Z,45.07
2023-05-15T05:52:59.680Z,39.00
2023-05-15T05:55:32.359Z,41.90
2023-05-15T05:58:14.578Z,38.50
2023-05-15T06:00:48.479Z,37.60
2023-05-15T06:03:18.681Z,39.03
2023-05-15T06:05:49.002Z,37.47
2023-05-15T06:08:27.937Z,36.67
2023-05-15T06:11:17.380Z,37.17
2023-05-15T06:13:48.314Z,36.87
2023-05-15T06:16:19.021Z,35.60
2023-05-15T06:18:51.003Z,35.27
2023-05-15T06:21:23.100Z,31.93
2023-05-15T06:23:56.875Z,32.17
2023-05-15T06:26:30.284Z,31.23
2023-05-15T06:29:03.877Z,35.63
2023-05-15T06:31:34.602Z,30.73
2023-05-15T06:34:18.245Z,31.87
2023-05-15T06:36:48.556Z,31.40
2023-05-15T06:39:21.290Z,33.23
2023-05-15T06:41:50.186Z,29.37
2023-05-15T06:44:29.997Z,31.87
2023-05-15T06:47:01.936Z,29.50
2023-05-15T06:49:34.638Z,29.63
2023-05-15T06:52:06.720Z,29.00
2023-05-15T06:54:43.999Z,32.87
2023-05-15T06:57:17.943Z,32.03
2023-05-15T06:59:48.948Z,32.47
2023-05-15T07:02:21.856Z,31.97
2023-05-15T07:04:54.810Z,32.60
2023-05-15T07:07:28.478Z,34.57
2023-05-15T07:09:59.777Z,30.13
2023-05-15T07:12:41.787Z,35.57
2023-05-15T07:15:18.892Z,29.97
2023-05-15T07:17:50.201Z,28.33
2023-05-15T07:20:23.810Z,30.40
2023-05-15T07:23:00.722Z,25.20
2023-05-15T07:25:34.774Z,25.67
2023-05-15T07:28:04.128Z,25.73
2023-05-15T07:30:44.718Z,22.20
2023-05-15T07:33:16.530Z,24.33
2023-05-15T07:35:48.318Z,23.23
2023-05-15T07:38:18.917Z,24.30
2023-05-15T07:40:49.339Z,23.73
2023-05-15T07:43:23.294Z,23.77
2023-05-15T07:45:54.985Z,23.90
2023-05-15T07:48:36.488Z,20.47
2023-05-15T07:51:08.058Z,21.47
2023-05-15T07:53:46.281Z,20.23
2023-05-15T07:56:19.241Z,18.53
2023-05-15T07:59:02.026Z,19.33
2023-05-15T08:01:38.645Z,20.10
2023-05-15T08:04:20.889Z,20.80
2023-05-15T08:06:53.936Z,18.07
2023-05-15T08:09:33.626Z,18.30
2023-05-15T08:12:25.904Z,18.50
2023-05-15T08:14:57.862Z,16.07
2023-05-15T08:17:30.230Z,16.07
2023-05-15T08:20:02.973Z,16.43
2023-05-15T08:22:34.624Z,19.87
2023-05-15T08:25:07.504Z,17.97
2023-05-15T08:27:38.169Z,18.67
2023-05-15T08:30:13.216Z,17.20
2023-05-15T08:32:49.528Z,19.13
2023-05-15T08:35:30.530Z,17.77
2023-05-15T08:38:04.145Z,16.37
2023-05-15T08:40:39.232Z,17.90
2023-05-15T08:43:22.114Z,17.63
2023-05-15T08:45:58.019Z,16.00
2023-05-15T08:48:37.466Z,17.03
2023-05-15T08:51:12.381Z,18.87
2023-05-15T08:53:48.712Z,16.53
2023-05-15T08:56:22.693Z,14.13
2023-05-15T08:58:54.922Z,14.03
2023-05-15T09:01:27.511Z,13.27
2023-05-15T09:04:01.386Z,14.73
2023-05-15T09:06:30.721Z,13.87
2023-05-15T09:09:04.350Z,13.43
2023-05-15T09:11:38.962Z,14.90
2023-05-15T09:14:09.480Z,14.03
2023-05-15T09:16:47.257Z,14.17
2023-05-15T09:19:24.050Z,13.70
2023-05-15T09:21:53.759Z,14.13
2023-05-15T09:24:38.429Z,12.30
2023-05-15T09:27:11.850Z,13.30
2023-05-15T09:29:44.710Z,13.83
2023-05-15T09:32:16.565Z,13.97
2023-05-15T09:34:49.179Z,12.80
2023-05-15T09:37:34.408Z,14.07
2023-05-15T09:40:11.791Z,12.87
2023-05-15T09:42:54.007Z,14.10
2023-05-15T09:45:35.915Z,12.77
2023-05-15T09:48:13.126Z,12.70
2023-05-15T09:50:47.392Z,12.10
2023-05-15T09:53:21.503Z,11.97
2023-05-15T09:55:52.683Z,10.80
2023-05-15T09:58:33.144Z,13.43
2023-05-15T10:01:05.027Z,12.63
2023-05-15T10:03:35.046Z,11.83
2023-05-15T10:06:09.981Z,13.40
2023-05-15T10:08:43.413Z,13.30
2023-05-15T10:11:17.156Z,13.30
2023-05-15T10:13:49.156Z,12.20
2023-05-15T10:16:26.021Z,13.63
2023-05-15T10:18:58.803Z,13.10
2023-05-15T10:21:35.167Z,13.70
2023-05-15T10:24:07.905Z,13.23
2023-05-15T10:27:00.408Z,14.40
2023-05-15T10:29:33.292Z,13.47
2023-05-15T10:32:15.599Z,14.23
2023-05-15T10:34:46.632Z,13.17
2023-05-15T10:37:28.968Z,12.67
2023-05-15T10:40:08.182Z,15.60
2023-05-15T10:42:41.352Z,14.30
2023-05-15T10:45:13.181Z,16.37
2023-05-15T10:47:52.791Z,15.50
2023-05-15T10:50:27.652Z,15.23
2023-05-15T10:53:02.618Z,14.97
2023-05-15T10:55:44.871Z,13.47
2023-05-15T10:58:15.920Z,13.07
2023-05-15T11:00:47.658Z,14.03
2023-05-15T11:03:34.872Z,15.20
2023-05-15T11:06:14.412Z,14.40
2023-05-15T11:08:49.180Z,13.40
2023-05-15T11:11:58.234Z,15.60
2023-05-15T11:14:37.185Z,14.47
2023-05-15T11:17:16.560Z,14.43
2023-05-15T11:20:04.356Z,13.77
2023-05-15T11:22:37.626Z,13.03
2023-05-15T11:25:14.752Z,13.00
2023-05-15T11:27:55.066Z,12.75
2023-05-15T11:30:38.887Z,13.90
2023-05-15T11:33:14.079Z,12.82
2023-05-15T11:35:48.828Z,12.23
2023-05-15T11:38:23.337Z,10.70
2023-05-15T11:41:03.661Z,10.98
2023-05-15T11:43:35.427Z,11.35
2023-05-15T11:46:09.615Z,10.93
2023-05-15T11:48:41.800Z,10.18
2023-05-15T11:51:27.724Z,9.88
2023-05-15T11:54:03.481Z,11.00
2023-05-15T11:56:35.195Z,10.88
2023-05-15T11:59:05.970Z,9.90
2023-05-15T12:01:50.128Z,11.32
2023-05-15T12:04:26.761Z,11.90
2023-05-15T12:07:03.297Z,10.75
2023-05-15T12:09:35.568Z,11.80
2023-05-15T12:12:09.944Z,12.63
2023-05-15T12:14:52.723Z,11.13
2023-05-15T12:17:26.177Z,11.65
2023-05-15T12:20:00.874Z,11.65
2023-05-15T12:22:31.040Z,11.20
2023-05-15T12:25:04.258Z,10.80
2023-05-15T12:27:37.844Z,11.00
2023-05-15T12:30:11.236Z,10.95
2023-05-15T12:32:47.475Z,13.38
2023-05-15T12:35:25.568Z,13.35
2023-05-15T12:38:06.885Z,12.82
2023-05-15T12:40:38.279Z,11.95
2023-05-15T12:43:10.251Z,11.10
2023-05-15T12:45:44.900Z,10.82
2023-05-15T12:48:17.264Z,11.10
2023-05-15T12:51:06.516Z,10.10
2023-05-15T12:53:40.256Z,10.90
2023-05-15T12:56:12.829Z,11.65
2023-05-15T12:58:43.139Z,10.80
2023-05-15T13:01:25.480Z,9.77
2023-05-15T13:03:56.823Z,11.25
2023-05-15T13:06:45.729Z,13.30
2023-05-15T13:09:29.374Z,10.77
2023-05-15T13:12:00.712Z,11.30
2023-05-15T13:14:38.482Z,8.90
2023-05-15T13:17:10.172Z,10.45
2023-05-15T13:19:41.718Z,10.48
2023-05-15T13:22:12.184Z,10.43
2023-05-15T13:24:46.281Z,9.40
2023-05-15T13:27:34.535Z,10.20
2023-05-15T13:30:09.065Z,11.27
2023-05-15T13:32:38.823Z,11.25
2023-05-15T13:35:13.321Z,9.30
2023-05-15T13:37:43.481Z,9.75
2023-05-15T13:40:15.576Z,9.18
2023-05-15T13:42:46.738Z,8.15
2023-05-15T13:45:20.160Z,8.13
2023-05-15T13:47:53.771Z,8.63
2023-05-15T13:50:32.138Z,8.88
2023-05-15T13:53:01.540Z,8.65
2023-05-15T13:55:35.706Z,9.00
2023-05-15T13:58:06.352Z,9.15
2023-05-15T14:00:40.445Z,8.35
2023-05-15T14:03:18.416Z,9.30
2023-05-15T14:05:49.208Z,9.85
2023-05-15T14:08:20.339Z,9.80
2023-05-15T14:10:51.475Z,9.90
2023-05-15T14:13:23.831Z,7.63
2023-05-15T14:15:59.753Z,6.68
2023-05-15T14:18:31.806Z,7.22
2023-05-15T14:21:02.714Z,8.27
2023-05-15T14:23:34.638Z,9.18
2023-05-15T14:26:06.820Z,6.93
2023-05-15T14:28:36.629Z,12.85
2023-05-15T14:31:22.075Z,9.77
2023-05-15T14:33:54.433Z,12.52
2023-05-15T14:36:28.658Z,11.02
2023-05-15T14:39:00.423Z,8.15
2023-05-15T14:41:31.219Z,8.45
2023-05-15T14:44:02.258Z,7.72
2023-05-15T14:46:34.136Z,8.63
2023-05-15T14:49:13.225Z,8.35
2023-05-15T14:51:45.927Z,8.25
2023-05-15T14:54:17.240Z,9.10
2023-05-15T14:56:54.393Z,7.70
2023-05-15T14:59:33.621Z,7.47
2023-05-15T15:02:07.224Z,7.25
2023-05-15T15:04:38.776Z,8.80
2023-05-15T15:07:14.277Z,8.57
2023-05-15T15:09:45.831Z,6.47
2023-05-15T15:12:39.081Z,7.95
2023-05-15T15:15:15.084Z,8.87
2023-05-15T15:18:17.328Z,8.70
2023-05-15T15:20:47.659Z,9.77
2023-05-15T15:23:23.142Z,18.93
2023-05-15T15:25:59.499Z,14.37
2023-05-15T15:28:41.866Z,9.17
2023-05-15T15:31:13.039Z,9.53
2023-05-15T15:33:47.752Z,8.80
2023-05-15T15:36:17.830Z,9.00
2023-05-15T15:39:08.646Z,9.43
2023-05-15T15:41:45.651Z,8.70
2023-05-15T15:44:16.891Z,8.80
2023-05-15T15:47:03.463Z,8.20
2023-05-15T15:49:37.851Z,8.77
2023-05-15T15:52:14.101Z,8.83
2023-05-15T15:54:47.379Z,9.37
2023-05-15T15:57:35.357Z,9.60
2023-05-15T16:00:11.376Z,9.63
2023-05-15T16:02:44.369Z,9.43
2023-05-15T16:05:30.273Z,10.27
2023-05-15T16:08:02.230Z,11.40
2023-05-15T16:10:33.110Z,13.13
2023-05-15T16:13:12.736Z,11.63
2023-05-15T16:15:41.861Z,11.57
2023-05-15T16:18:28.844Z,10.80
2023-05-15T16:21:09.446Z,8.67
2023-05-15T16:23:40.563Z,9.07
2023-05-15T16:26:15.673Z,9.47
2023-05-15T16:28:47.783Z,8.27
2023-05-15T16:31:21.354Z,9.13
2023-05-15T16:33:53.181Z,11.30
2023-05-15T16:36:32.363Z,9.53
2023-05-15T16:39:15.576Z,7.73
2023-05-15T16:41:50.615Z,11.00
2023-05-15T16:44:21.803Z,7.77
2023-05-15T16:46:54.151Z,9.40
2023-05-15T16:49:31.558Z,7.83
2023-05-15T16:52:04.794Z,7.77
2023-05-15T16:54:42.373Z,8.33
2023-05-15T16:57:14.586Z,7.80
2023-05-15T16:59:45.367Z,7.17
2023-05-15T17:02:18.743Z,9.17
2023-05-15T17:04:48.333Z,8.17
2023-05-15T17:07:23.239Z,7.53
2023-05-15T17:09:56.001Z,7.03
2023-05-15T17:12:31.987Z,7.60
2023-05-15T17:15:13.932Z,7.23
2023-05-15T17:17:46.783Z,6.90
2023-05-15T17:20:20.448Z,5.77
2023-05-15T17:22:57.153Z,8.27
2023-05-15T17:25:36.150Z,7.27
2023-05-15T17:28:08.051Z,6.10
2023-05-15T17:30:38.857Z,6.43
2023-05-15T17:33:12.434Z,6.13
2023-05-15T17:35:42.283Z,6.63
2023-05-15T17:38:13.385Z,7.80
2023-05-15T17:40:44.949Z,5.30
2023-05-15T17:43:15.141Z,5.47
2023-05-15T17:45:46.408Z,5.13
2023-05-15T17:48:17.730Z,5.33
2023-05-15T17:50:47.935Z,5.97
2023-05-15T17:53:31.602Z,5.97
2023-05-15T17:56:03.591Z,5.90
2023-05-15T17:58:33.236Z,5.20
2023-05-15T18:01:11.214Z,5.60
2023-05-15T18:03:46.200Z,6.27
2023-05-15T18:06:15.890Z,5.13
2023-05-15T18:08:49.209Z,4.50
2023-05-15T18:11:22.381Z,4.53
2023-05-15T18:13:58.411Z,3.93
2023-05-15T18:16:31.447Z,4.47
2023-05-15T18:19:06.279Z,5.20
2023-05-15T18:21:37.819Z,5.57
2023-05-15T18:24:15.240Z,6.53
2023-05-15T18:26:56.835Z,8.03
2023-05-15T18:29:31.126Z,7.53
2023-05-15T18:32:05.599Z,8.43
2023-05-15T18:34:37.857Z,7.57
2023-05-15T18:37:07.583Z,9.53
2023-05-15T18:39:42.332Z,8.03
2023-05-15T18:42:18.629Z,8.20
2023-05-15T18:44:49.593Z,8.20
2023-05-15T18:47:26.403Z,8.03
2023-05-15T18:49:57.688Z,8.00
2023-05-15T18:52:29.771Z,7.70
2023-05-15T18:55:01.709Z,8.30
2023-05-15T18:57:31.373Z,9.30
2023-05-15T19:00:00.991Z,7.77
2023-05-15T19:02:33.642Z,6.83
2023-05-15T19:05:07.279Z,6.87
2023-05-15T19:07:37.284Z,6.83
2023-05-15T19:10:20.410Z,6.50
2023-05-15T19:12:49.498Z,7.00
2023-05-15T19:15:19.812Z,6.90
2023-05-15T19:17:49.975Z,6.80
2023-05-15T19:20:25.063Z,5.20
2023-05-15T19:22:57.622Z,7.17
2023-05-15T19:25:31.686Z,5.83
2023-05-15T19:28:04.874Z,6.17
2023-05-15T19:30:36.225Z,5.43
2023-05-15T19:33:06.437Z,6.67
2023-05-15T19:35:42.320Z,8.43
2023-05-15T19:38:13.391Z,7.33
2023-05-15T19:40:49.349Z,6.80
2023-05-15T19:43:22.913Z,7.23
2023-05-15T19:45:52.411Z,4.93
2023-05-15T19:48:22.335Z,5.73
2023-05-15T19:50:56.147Z,5.13
2023-05-15T19:53:31.206Z,2.80
2023-05-15T19:56:01.671Z,3.27
2023-05-15T19:58:32.906Z,3.33
2023-05-15T20:01:07.265Z,2.57
2023-05-15T20:03:37.262Z,2.30
2023-05-15T20:06:09.941Z,2.80
2023-05-15T20:08:43.625Z,2.83
2023-05-15T20:11:16.384Z,2.13
2023-05-15T20:13:48.962Z,1.60
2023-05-15T20:16:27.580Z,2.23
2023-05-15T20:19:03.400Z,1.80
2023-05-15T20:21:36.884Z,3.30
2023-05-15T20:24:19.363Z,3.03
2023-05-15T20:26:53.274Z,2.93
2023-05-15T20:29:32.657Z,3.77
2023-05-15T20:32:08.863Z,2.30
2023-05-15T20:34:43.253Z,3.20
2023-05-15T20:37:17.307Z,4.40
2023-05-15T20:39:53.374Z,5.03
2023-05-15T20:42:29.768Z,4.70
2023-05-15T20:45:00.493Z,3.13
2023-05-15T20:47:30.030Z,5.13
2023-05-15T20:49:59.493Z,4.30
2023-05-15T20:52:31.907Z,5.67
2023-05-15T20:55:01.845Z,5.70
2023-05-15T20:57:38.230Z,1.93
2023-05-15T21:00:10.472Z,3.83
2023-05-15T21:02:41.283Z,4.63
2023-05-15T21:05:12.910Z,3.90
2023-05-15T21:07:43.593Z,3.00
2023-05-15T21:10:17.525Z,3.13
2023-05-15T21:12:51.920Z,3.70
2023-05-15T21:15:27.125Z,4.87
2023-05-15T21:17:58.198Z,7.83
2023-05-15T21:20:31.944Z,5.77
2023-05-15T21:23:03.755Z,5.63
2023-05-15T21:25:37.152Z,7.73
2023-05-15T21:28:07.941Z,8.93
2023-05-15T21:30:37.780Z,7.20
2023-05-15T21:33:14.737Z,10.53
2023-05-15T21:35:44.523Z,5.50
2023-05-15T21:38:20.491Z,7.07
2023-05-15T21:40:51.209Z,13.40
2023-05-15T21:43:26.061Z,10.10
2023-05-15T21:45:59.190Z,10.13
2023-05-15T21:48:31.945Z,7.57
2023-05-15T21:51:02.171Z,9.83
2023-05-15T21:53:36.401Z,10.23
2023-05-15T21:56:09.563Z,9.60
2023-05-15T21:58:41.543Z,8.10
2023-05-15T22:01:12.394Z,11.20
2023-05-15T22:03:41.686Z,12.33
2023-05-15T22:06:14.300Z,12.20
2023-05-15T22:08:44.273Z,9.63
2023-05-15T22:11:18.389Z,10.47
2023-05-15T22:13:49.468Z,10.33
2023-05-15T22:16:26.904Z,12.50
2023-05-15T22:18:57.849Z,8.23
2023-05-15T22:21:29.408Z,11.00
2023-05-15T22:24:00.659Z,12.23
2023-05-15T22:26:34.112Z,14.17
2023-05-15T22:29:07.336Z,12.70
2023-05-15T22:31:41.992Z,12.13
2023-05-15T22:34:12.968Z,13.50
2023-05-15T22:36:46.046Z,12.93
2023-05-15T22:39:18.178Z,13.17
2023-05-15T22:41:48.443Z,11.07
2023-05-15T22:44:19.529Z,11.90
2023-05-15T22:46:54.392Z,12.80
2023-05-15T22:49:33.871Z,10.67
2023-05-15T22:52:04.630Z,11.30
2023-05-15T22:54:35.290Z,12.63
2023-05-15T22:57:06.109Z,13.03
2023-05-15T22:59:41.259Z,15.03
2023-05-15T23:02:10.928Z,11.67
2023-05-15T23:04:45.957Z,20.03
2023-05-15T23:07:17.643Z,10.67
2023-05-15T23:09:51.414Z,15.17
2023-05-15T23:12:22.204Z,13.67
2023-05-15T23:14:54.745Z,12.27
2023-05-15T23:17:27.108Z,12.50
2023-05-15T23:20:01.562Z,19.57
2023-05-15T23:22:32.454Z,21.40
2023-05-15T23:25:04.377Z,14.50
2023-05-15T23:27:34.416Z,17.23
2023-05-15T23:30:06.998Z,16.63
2023-05-15T23:32:39.586Z,15.20
2023-05-15T23:35:11.279Z,14.40
2023-05-15T23:37:40.528Z,13.93
2023-05-15T23:40:12.135Z,19.33
2023-05-15T23:42:41.177Z,21.00
2023-05-15T23:45:19.684Z,14.07
2023-05-15T23:47:49.456Z,19.33
2023-05-15T23:50:21.965Z,18.27
2023-05-15T23:52:51.847Z,15.70
2023-05-15T23:55:23.020Z,16.30
2023-05-15T23:57:53.442Z,15.70
